Time;durP1;ratioP1;P1;durP2;ratioP2;P2;SDS_P1;SDS_P2;PMS_P1;PMS_P2;Temp;Humidity;BMP_temperature;BMP_pressure;BME280_temperature;BME280_humidity;BME280_pressure;Samples;Min_cycle;Max_cycle;Signal;HPM_P1;HPM_P2
2023/10/20 00:02:22;;;;;;;;;1.67;1.00;;;;;17.38;83.05;97598.25;5032647;28;45428;-69
2023/10/20 00:04:48;;;;;;;;;1.67;1.00;;;;;17.42;83.22;97601.53;5020072;28;45601;-68
2023/10/20 00:07:13;;;;;;;;;0.00;0.00;;;;;17.39;83.26;97597.28;5033753;28;45438;-68
2023/10/20 00:09:39;;;;;;;;;2.00;1.00;;;;;17.40;82.56;97584.94;5024488;28;45426;-68
2023/10/20 00:12:05;;;;;;;;;1.67;1.00;;;;;17.44;82.67;97584.59;5031928;28;45359;-69
2023/10/20 00:14:31;;;;;;;;;1.00;1.00;;;;;17.41;82.91;97579.50;5030834;28;47954;-68
2023/10/20 00:16:57;;;;;;;;;2.00;0.00;;;;;17.30;81.85;97550.41;5036154;28;45365;-67
2023/10/20 00:19:22;;;;;;;;;1.00;1.00;;;;;17.33;83.04;97556.28;5031854;28;45423;-67
2023/10/20 00:21:48;;;;;;;;;2.00;0.67;;;;;17.29;83.50;97557.47;5019181;28;45632;-67
2023/10/20 00:24:14;;;;;;;;;0.00;0.00;;;;;17.31;83.35;97546.78;5020585;28;45425;-68
2023/10/20 00:26:39;;;;;;;;;0.00;0.00;;;;;17.31;83.39;97537.03;5028403;28;45448;-69
2023/10/20 00:29:09;;;;;;;;;0.33;0.33;;;;;17.28;82.03;97529.34;5036031;28;45415;-69
2023/10/20 00:31:35;;;;;;;;;0.67;0.67;;;;;17.30;82.79;97531.88;5037131;28;45356;-68
2023/10/20 00:34:00;;;;;;;;;0.00;0.00;;;;;17.25;82.61;97526.06;5026858;28;46231;-67
2023/10/20 00:36:27;;;;;;;;;0.00;0.00;;;;;17.22;82.85;97539.53;5036998;28;45685;-68
2023/10/20 00:38:53;;;;;;;;;2.00;0.00;;;;;17.20;83.79;97547.59;5021301;28;45370;-68
2023/10/20 00:41:18;;;;;;;;;0.00;0.00;;;;;17.18;83.86;97554.81;5023899;28;45516;-68
2023/10/20 00:43:44;;;;;;;;;0.67;0.67;;;;;17.08;83.73;97522.06;5016461;28;46114;-69
2023/10/20 00:46:10;;;;;;;;;0.67;0.00;;;;;17.22;84.20;97548.31;5023203;28;45429;-69
2023/10/20 00:48:36;;;;;;;;;0.67;0.67;;;;;17.26;83.54;97549.78;5034419;28;45487;-68
2023/10/20 00:51:02;;;;;;;;;1.00;1.00;;;;;17.25;83.66;97548.09;5037646;28;45463;-68
2023/10/20 00:53:29;;;;;;;;;0.33;0.33;;;;;17.27;83.66;97551.44;5037557;28;46615;-68
2023/10/20 00:55:58;;;;;;;;;1.00;1.00;;;;;17.29;83.80;97546.06;5038372;28;45745;-68
2023/10/20 00:58:28;;;;;;;;;1.00;0.00;;;;;17.31;83.47;97536.19;5037944;28;45397;-67
2023/10/20 01:00:54;;;;;;;;;0.00;0.00;;;;;17.32;83.43;97541.38;5037961;28;45390;-67
2023/10/20 01:03:20;;;;;;;;;2.33;1.00;;;;;17.33;83.32;97545.69;5032128;28;45408;-69
2023/10/20 01:05:47;;;;;;;;;0.00;0.00;;;;;17.26;83.54;97533.91;5036616;28;45381;-68
2023/10/20 01:08:13;;;;;;;;;1.00;0.33;;;;;17.32;83.57;97533.44;5039058;28;45410;-68
2023/10/20 01:10:39;;;;;;;;;1.00;1.00;;;;;17.25;83.86;97504.91;5038712;28;45472;-68
2023/10/20 01:13:05;;;;;;;;;1.00;0.00;;;;;17.31;84.21;97510.59;5036556;28;45878;-69
2023/10/20 01:15:31;;;;;;;;;1.67;0.00;;;;;17.32;84.05;97508.78;5037204;28;45414;-69
2023/10/20 01:17:57;;;;;;;;;1.33;0.00;;;;;17.32;83.45;97504.34;5037567;28;45438;-68
2023/10/20 01:20:23;;;;;;;;;0.00;0.00;;;;;17.33;82.78;97500.75;5037198;28;45290;-68
2023/10/20 01:22:49;;;;;;;;;0.00;0.00;;;;;17.33;83.12;97510.47;5049178;28;46427;-68
2023/10/20 01:25:15;;;;;;;;;0.00;0.00;;;;;17.20;82.32;97497.34;5028195;28;45386;-69
2023/10/20 01:27:41;;;;;;;;;0.00;0.00;;;;;17.29;81.94;97519.59;5036197;28;45346;-68
2023/10/20 01:30:07;;;;;;;;;0.00;0.00;;;;;17.21;81.38;97511.44;5036594;28;45603;-68
2023/10/20 01:32:33;;;;;;;;;0.00;0.00;;;;;17.24;81.26;97509.38;5036879;28;46352;-67
2023/10/20 01:35:08;;;;;;;;;0.00;0.00;;;;;17.02;81.43;97459.09;5037808;28;45389;-67
2023/10/20 01:37:34;;;;;;;;;0.00;0.00;;;;;17.22;80.41;97487.50;5052192;28;46127;-68
2023/10/20 01:39:59;;;;;;;;;0.00;0.00;;;;;17.10;80.49;97465.47;5036223;28;45363;-68
2023/10/20 01:42:25;;;;;;;;;0.00;0.00;;;;;17.19;80.35;97474.50;5036666;28;46219;-67
2023/10/20 01:44:50;;;;;;;;;0.67;0.00;;;;;17.10;80.20;97459.34;5036405;28;45441;-67
2023/10/20 01:47:16;;;;;;;;;0.00;0.00;;;;;17.00;79.15;97439.88;5022551;28;45503;-67
2023/10/20 01:49:42;;;;;;;;;0.00;0.00;;;;;16.64;79.29;97392.31;5036578;28;45511;-69
2023/10/20 01:52:07;;;;;;;;;1.00;0.00;;;;;16.80;79.58;97413.16;5037472;28;46524;-67
2023/10/20 01:54:33;;;;;;;;;0.00;0.00;;;;;16.87;80.48;97432.88;5038408;28;45227;-69
2023/10/20 01:56:59;;;;;;;;;0.00;0.00;;;;;16.79;80.65;97434.41;5052079;28;45427;-69
2023/10/20 01:59:24;;;;;;;;;0.00;0.00;;;;;16.80;81.21;97436.09;5037026;28;45284;-67
2023/10/20 02:01:50;;;;;;;;;0.00;0.00;;;;;16.89;81.33;97430.94;5036349;28;46048;-67
2023/10/20 02:04:16;;;;;;;;;0.00;0.00;;;;;16.94;80.47;97412.94;5036156;28;45316;-68
2023/10/20 02:06:42;;;;;;;;;0.00;0.00;;;;;16.93;80.49;97413.91;5036510;28;45482;-68
2023/10/20 02:09:09;;;;;;;;;0.00;0.00;;;;;16.83;81.32;97415.56;5036362;28;45486;-68
2023/10/20 02:11:36;;;;;;;;;0.00;0.00;;;;;16.68;81.84;97406.97;5036229;28;45591;-66
2023/10/20 02:14:03;;;;;;;;;0.00;0.00;;;;;16.67;80.52;97407.09;5036023;28;45500;-68
2023/10/20 02:16:29;;;;;;;;;0.00;0.00;;;;;16.67;79.56;97407.09;5036620;28;45460;-67
2023/10/20 02:18:55;;;;;;;;;0.00;0.00;;;;;16.52;80.31;97399.38;5036555;28;45516;-67
2023/10/20 02:21:20;;;;;;;;;0.00;0.00;;;;;16.54;81.46;97394.81;5036170;28;45338;-65
2023/10/20 02:23:46;;;;;;;;;0.00;0.00;;;;;16.52;81.26;97369.47;5023855;28;45343;-67
2023/10/20 02:26:12;;;;;;;;;0.00;0.00;;;;;16.59;81.41;97368.06;5034147;28;45456;-69
2023/10/20 02:28:38;;;;;;;;;0.00;0.00;;;;;16.50;80.43;97344.97;5037072;28;45417;-67
2023/10/20 02:31:21;;;;;;;;;0.00;0.00;;;;;16.32;82.59;97332.22;5049211;28;47878;-67
2023/10/20 02:33:48;;;;;;;;;0.00;0.00;;;;;16.23;81.77;97334.69;5024660;28;45453;-67
2023/10/20 02:36:21;;;;;;;;;0.00;0.00;;;;;16.37;82.11;97362.69;5034404;28;45463;-66
2023/10/20 02:38:48;;;;;;;;;0.00;0.00;;;;;16.36;81.99;97367.13;5036114;28;45451;-68
2023/10/20 02:41:14;;;;;;;;;0.00;0.00;;;;;16.32;82.25;97360.41;5035191;28;48055;-68
2023/10/20 02:43:40;;;;;;;;;0.00;0.00;;;;;16.23;81.50;97347.88;5039107;28;45447;-68
2023/10/20 02:46:30;;;;;;;;;0.00;0.00;;;;;16.24;81.94;97357.50;5030843;28;45386;-68
2023/10/20 02:48:56;;;;;;;;;1.67;0.00;;;;;16.21;81.66;97357.75;5033186;28;45442;-66
2023/10/20 02:51:28;;;;;;;;;0.33;0.00;;;;;16.25;82.37;97361.81;5036534;28;46336;-66
2023/10/20 02:54:01;;;;;;;;;0.33;0.00;;;;;16.30;81.77;97375.50;5049405;28;45464;-67
2023/10/20 02:56:28;;;;;;;;;0.00;0.00;;;;;16.24;81.42;97353.06;5028211;28;45497;-67
2023/10/20 02:58:54;;;;;;;;;0.00;0.00;;;;;16.26;81.55;97364.34;5032117;28;45399;-67
2023/10/20 03:01:55;;;;;;;;;0.00;0.00;;;;;16.31;81.34;97364.00;5024748;28;45444;-67
2023/10/20 03:04:21;;;;;;;;;3.00;0.00;;;;;16.23;82.11;97361.94;5038862;28;45458;-66
2023/10/20 03:06:51;;;;;;;;;1.33;1.00;;;;;16.19;82.28;97352.56;5036633;28;45729;-67
2023/10/20 03:09:18;;;;;;;;;0.00;0.00;;;;;16.16;82.49;97352.81;5038051;28;45620;-68
2023/10/20 03:11:44;;;;;;;;;0.00;0.00;;;;;16.15;82.41;97344.97;5038410;28;45407;-67
2023/10/20 03:14:11;;;;;;;;;4.00;0.00;;;;;16.04;82.37;97328.16;5038237;28;45356;-67
2023/10/20 03:16:42;;;;;;;;;1.00;0.00;;;;;15.97;83.56;97332.22;5039203;28;45461;-67
2023/10/20 03:19:11;;;;;;;;;0.00;0.00;;;;;15.88;83.87;97322.34;5023251;28;45547;-67
2023/10/20 03:21:43;;;;;;;;;0.33;0.33;;;;;16.01;83.88;97331.00;5027463;28;46435;-68
2023/10/20 03:24:09;;;;;;;;;2.00;0.00;;;;;15.64;84.29;97278.31;5031508;28;45431;-67
2023/10/20 03:26:35;;;;;;;;;0.67;0.67;;;;;15.90;84.10;97326.53;5038516;28;45481;-67
2023/10/20 03:29:00;;;;;;;;;0.00;0.00;;;;;15.77;84.38;97296.72;5035345;28;45655;-67
2023/10/20 03:31:29;;;;;;;;;0.00;0.00;;;;;15.86;84.21;97296.03;5026464;28;45625;-66
2023/10/20 03:33:55;;;;;;;;;0.33;0.00;;;;;15.88;83.73;97285.38;5022140;28;45821;-67
2023/10/20 03:36:21;;;;;;;;;0.00;0.00;;;;;15.89;83.65;97294.97;5045574;28;45485;-65
2023/10/20 03:38:49;;;;;;;;;0.00;0.00;;;;;15.81;83.74;97286.81;5031165;28;45554;-65
2023/10/20 03:41:15;;;;;;;;;0.33;0.33;;;;;15.84;83.91;97291.84;5030018;28;46303;-66
2023/10/20 03:43:40;;;;;;;;;0.00;0.00;;;;;15.82;84.23;97284.03;5023331;28;45486;-67
2023/10/20 03:46:31;;;;;;;;;0.00;0.00;;;;;15.86;84.65;97295.22;5032169;28;45538;-67
2023/10/20 03:48:57;;;;;;;;;0.00;0.00;;;;;15.76;84.92;97281.03;5013622;28;45494;-66
2023/10/20 03:51:26;;;;;;;;;0.00;0.00;;;;;15.90;84.79;97309.88;5029431;28;45741;-65
2023/10/20 03:53:54;;;;;;;;;2.00;0.00;;;;;15.95;84.78;97312.16;5034366;28;45409;-67
2023/10/20 03:56:22;;;;;;;;;0.00;0.00;;;;;15.81;84.21;97286.81;5026082;28;45599;-66
2023/10/20 03:58:48;;;;;;;;;2.00;1.00;;;;;15.85;84.67;97294.38;5037290;28;45957;-66
2023/10/20 04:01:14;;;;;;;;;1.00;1.00;;;;;16.00;84.56;97326.69;5032443;28;45425;-67
2023/10/20 04:03:40;;;;;;;;;1.00;1.00;;;;;15.66;85.13;97288.72;5020586;28;45441;-67
2023/10/20 04:06:09;;;;;;;;;1.33;1.33;;;;;15.74;85.20;97319.88;5035017;28;45554;-67
2023/10/20 04:08:35;;;;;;;;;4.67;2.00;;;;;15.93;85.67;97346.59;5030018;28;45361;-66
2023/10/20 04:11:01;;;;;;;;;2.00;2.00;;;;;16.05;85.35;97350.94;5039388;28;47048;-67
2023/10/20 04:13:29;;;;;;;;;1.00;1.00;;;;;15.89;85.93;97316.91;5027788;28;45559;-66
2023/10/20 04:15:55;;;;;;;;;2.00;1.00;;;;;16.02;84.56;97332.72;5043414;28;45866;-68
2023/10/20 04:18:24;;;;;;;;;1.00;1.00;;;;;16.15;84.08;97345.81;5019723;28;45472;-67
2023/10/20 04:20:50;;;;;;;;;0.00;0.00;;;;;16.14;84.41;97352.06;5027089;28;46465;-66
2023/10/20 04:23:19;;;;;;;;;1.00;1.00;;;;;15.82;83.87;97291.09;5031714;28;45275;-66
2023/10/20 04:25:53;;;;;;;;;0.33;0.33;;;;;15.83;83.65;97283.09;5031351;28;45479;-67
2023/10/20 04:28:20;;;;;;;;;0.67;0.67;;;;;16.32;83.09;97365.69;5027183;28;45453;-67
2023/10/20 05:02:57;;;;;;;;;3.00;1.00;;;;;16.26;81.86;97419.81;5033954;28;46340;-67
2023/10/20 05:07:52;;;;;;;;;3.00;2.00;;;;;16.18;82.24;97434.50;5023458;28;45412;-67
2023/10/20 05:10:28;;;;;;;;;2.00;2.00;;;;;16.03;82.65;97405.66;5035478;28;45437;-67
2023/10/20 05:13:17;;;;;;;;;1.00;1.00;;;;;16.14;82.85;97436.56;5033100;28;45630;-66
2023/10/20 05:15:43;;;;;;;;;3.33;2.00;;;;;16.18;82.60;97434.50;5038080;28;45397;-68
2023/10/20 05:18:14;;;;;;;;;2.67;2.67;;;;;15.98;82.92;97399.03;5034897;28;45378;-68
2023/10/20 05:20:42;;;;;;;;;5.00;2.00;;;;;16.13;82.92;97416.38;5036357;28;45437;-67
2023/10/20 05:23:08;;;;;;;;;1.00;1.00;;;;;16.10;83.30;97417.44;5028300;28;46029;-67
2023/10/20 05:25:34;;;;;;;;;3.00;2.00;;;;;16.05;83.08;97395.00;5016204;28;45417;-65
2023/10/20 05:28:00;;;;;;;;;2.00;1.00;;;;;16.12;83.04;97398.84;5016549;28;45456;-66
2023/10/20 05:30:27;;;;;;;;;3.33;2.00;;;;;16.01;83.67;97394.34;5032168;28;45362;-66
2023/10/20 05:32:53;;;;;;;;;1.00;1.00;;;;;15.90;83.44;97374.03;5032555;28;46780;-67
2023/10/20 05:35:19;;;;;;;;;3.00;2.00;;;;;16.10;83.65;97408.69;5017615;28;45551;-66
2023/10/20 05:37:44;;;;;;;;;2.67;2.67;;;;;15.73;83.62;97329.59;5017525;28;45398;-67
2023/10/20 05:40:13;;;;;;;;;4.00;2.67;;;;;16.15;83.70;97381.94;5017709;28;45466;-66
2023/10/20 05:42:44;;;;;;;;;4.33;3.00;;;;;16.18;83.51;97379.06;5031430;28;46909;-67
2023/10/20 05:45:13;;;;;;;;;2.67;2.67;;;;;16.18;83.34;97374.63;5016067;28;45580;-67
2023/10/20 05:47:38;;;;;;;;;2.00;2.00;;;;;16.20;83.40;97388.56;5020217;28;45559;-67
2023/10/20 05:50:05;;;;;;;;;3.00;1.00;;;;;16.21;83.30;97381.50;5023316;28;45529;-67
2023/10/20 05:52:31;;;;;;;;;2.00;2.00;;;;;16.24;83.05;97392.66;5016278;28;45401;-66
2023/10/20 05:54:57;;;;;;;;;1.67;1.67;;;;;16.24;82.81;97381.25;5016279;28;45448;-67
2023/10/20 05:57:23;;;;;;;;;2.00;2.00;;;;;16.28;82.63;97383.56;5017613;28;45594;-66
2023/10/20 05:59:53;;;;;;;;;2.00;2.00;;;;;16.25;83.08;97382.94;5023034;28;45414;-65
2023/10/20 06:02:22;;;;;;;;;2.00;2.00;;;;;16.33;82.58;97394.63;5036851;28;45560;-65
2023/10/20 06:04:48;;;;;;;;;1.00;1.00;;;;;16.31;82.62;97393.06;5035193;28;45414;-66
2023/10/20 06:07:14;;;;;;;;;1.00;1.00;;;;;16.29;82.79;97394.97;5035989;28;45445;-67
2023/10/20 06:09:39;;;;;;;;;1.67;1.67;;;;;16.28;82.92;97388.00;5028079;28;45524;-69
2023/10/20 06:12:07;;;;;;;;;2.00;2.00;;;;;16.34;82.25;97392.81;5032658;28;46000;-65
2023/10/20 06:14:32;;;;;;;;;2.00;2.00;;;;;16.39;82.25;97388.03;5028423;28;45460;-66
2023/10/20 06:16:58;;;;;;;;;1.00;1.00;;;;;16.36;82.61;97382.16;5030476;28;45536;-68
2023/10/20 06:19:24;;;;;;;;;2.00;2.00;;;;;16.39;82.46;97395.94;5036064;28;45428;-67
2023/10/20 06:21:50;;;;;;;;;2.00;2.00;;;;;16.29;82.38;97379.94;5033352;28;46749;-67
2023/10/20 06:24:16;;;;;;;;;1.00;1.00;;;;;16.37;81.99;97405.78;5036643;28;45617;-67
2023/10/20 06:26:42;;;;;;;;;3.33;3.33;;;;;16.25;81.80;97381.16;5025539;28;45494;-68
2023/10/20 06:34:50;;;;;;;;;3.00;1.00;;;;;16.43;81.43;97405.34;5026089;28;45809;-69
2023/10/20 06:37:28;;;;;;;;;1.00;1.00;;;;;16.42;81.19;97405.44;5026385;28;45345;-69
2023/10/20 06:39:56;;;;;;;;;1.00;1.00;;;;;16.39;81.46;97379.28;5030383;28;45611;-69
2023/10/20 06:42:24;;;;;;;;;2.00;2.00;;;;;16.31;80.61;97361.38;5027233;28;45435;-66
2023/10/20 06:44:50;;;;;;;;;1.33;1.33;;;;;16.60;80.44;97387.38;5034497;28;45403;-67
2023/10/20 06:47:16;;;;;;;;;1.33;1.33;;;;;16.58;80.54;97389.28;5032079;28;45442;-66
2023/10/20 06:49:42;;;;;;;;;2.33;2.00;;;;;16.48;80.60;97373.28;5031207;28;45628;-67
2023/10/20 06:52:08;;;;;;;;;4.00;2.33;;;;;16.59;80.15;97396.28;5025826;28;45489;-67
2023/10/20 06:54:33;;;;;;;;;3.00;2.00;;;;;16.59;80.25;97404.19;5019342;28;45672;-67
2023/10/20 06:56:59;;;;;;;;;2.33;1.00;;;;;16.61;80.13;97404.91;5030800;28;45572;-67
2023/10/20 06:59:24;;;;;;;;;1.00;1.00;;;;;16.42;80.01;97373.75;5024873;28;45613;-68
2023/10/20 07:01:51;;;;;;;;;2.00;2.00;;;;;16.58;79.87;97405.97;5050927;28;47961;-69
2023/10/20 07:04:19;;;;;;;;;2.00;2.00;;;;;16.64;79.33;97424.03;5036818;28;45296;-66
2023/10/20 07:06:44;;;;;;;;;1.00;1.00;;;;;16.66;79.27;97429.19;5036802;28;45387;-67
2023/10/20 07:09:13;;;;;;;;;3.00;3.00;;;;;16.60;79.05;97411.16;5027440;28;45608;-66
2023/10/20 07:11:43;;;;;;;;;1.00;1.00;;;;;16.67;78.91;97422.94;5031921;28;45294;-67
2023/10/20 07:14:13;;;;;;;;;2.33;2.00;;;;;16.72;78.70;97428.72;5032361;28;45476;-66
2023/10/20 07:16:39;;;;;;;;;1.00;1.00;;;;;16.70;78.45;97425.34;5038369;28;45341;-67
2023/10/20 07:19:06;;;;;;;;;1.33;1.33;;;;;16.57;77.97;97406.94;5034808;28;46638;-67
2023/10/20 07:21:32;;;;;;;;;1.00;1.00;;;;;16.67;78.18;97423.78;5033927;28;46207;-67
2023/10/20 07:23:57;;;;;;;;;2.00;1.00;;;;;16.66;78.63;97429.19;5033133;28;45468;-67
2023/10/20 07:26:24;;;;;;;;;2.00;2.00;;;;;16.53;78.27;97405.50;5026099;28;45548;-69
2023/10/20 07:28:50;;;;;;;;;2.67;2.67;;;;;16.61;78.30;97431.31;5037466;28;45591;-66
2023/10/20 07:31:17;;;;;;;;;1.00;1.00;;;;;16.68;79.18;97425.47;5021027;28;45465;-68
2023/10/20 07:33:43;;;;;;;;;4.33;3.33;;;;;16.74;78.81;97432.09;5017960;28;45387;-68
2023/10/20 07:36:10;;;;;;;;;4.00;4.00;;;;;16.70;77.94;97438.56;5020701;28;45294;-68
2023/10/20 07:38:36;;;;;;;;;2.67;2.33;;;;;16.73;78.08;97431.25;5050241;28;45398;-68
2023/10/20 07:41:11;;;;;;;;;2.00;1.00;;;;;16.74;77.72;97421.53;5030674;28;46016;-67
2023/10/20 07:43:38;;;;;;;;;2.33;2.00;;;;;16.74;78.08;97437.38;5037885;28;45333;-66
2023/10/20 07:46:04;;;;;;;;;3.00;2.00;;;;;16.69;77.80;97436.88;5037077;28;45752;-69
2023/10/20 07:48:32;;;;;;;;;3.67;3.00;;;;;16.69;77.89;97444.81;5038109;28;45382;-68
2023/10/20 07:50:59;;;;;;;;;7.33;4.00;;;;;16.86;77.53;97456.78;5050277;28;46386;-68
2023/10/20 07:53:26;;;;;;;;;6.00;3.67;;;;;16.90;77.48;97466.16;5035111;28;45447;-68
2023/10/20 07:55:51;;;;;;;;;5.00;4.00;;;;;16.87;76.83;97455.81;5038139;28;45330;-67
2023/10/20 07:58:17;;;;;;;;;4.67;3.00;;;;;16.72;77.07;97449.84;5030470;28;45662;-68
2023/10/20 08:00:42;;;;;;;;;1.00;1.00;;;;;16.71;77.40;97446.38;5028716;28;47570;-67
2023/10/20 08:03:20;;;;;;;;;4.33;3.00;;;;;16.60;77.47;97445.50;5038404;28;45541;-67
2023/10/20 08:05:47;;;;;;;;;3.33;3.33;;;;;16.70;77.54;97451.78;5038078;28;45490;-68
2023/10/20 08:08:12;;;;;;;;;3.00;3.00;;;;;16.67;77.06;97441.44;5036565;28;45598;-67
2023/10/20 08:10:38;;;;;;;;;3.00;2.00;;;;;16.49;76.29;97439.22;5037950;28;46275;-67
2023/10/20 08:13:04;;;;;;;;;3.00;3.00;;;;;16.68;76.23;97473.03;5049664;28;45372;-68
2023/10/20 08:15:35;;;;;;;;;2.00;2.00;;;;;16.74;76.12;97469.09;5027856;28;45474;-68
2023/10/20 08:18:01;;;;;;;;;3.00;1.67;;;;;16.70;76.06;97471.13;5037573;28;45780;-67
2023/10/20 08:20:27;;;;;;;;;2.00;2.00;;;;;16.64;75.61;97466.28;5036130;28;46551;-68
2023/10/20 08:22:52;;;;;;;;;2.00;2.00;;;;;16.80;75.81;97471.31;5037112;28;45500;-68
2023/10/20 08:25:18;;;;;;;;;3.33;3.00;;;;;16.83;75.50;97494.84;5038141;28;46174;-66
2023/10/20 08:27:47;;;;;;;;;2.33;1.00;;;;;16.85;75.52;97503.53;5036775;28;45252;-67
2023/10/20 08:30:13;;;;;;;;;3.00;2.67;;;;;16.78;75.24;97480.28;5038972;28;45451;-66
2023/10/20 08:32:39;;;;;;;;;2.00;2.00;;;;;16.75;75.27;97494.53;5033022;28;45603;-67
2023/10/20 08:35:09;;;;;;;;;4.00;2.00;;;;;16.72;75.90;97498.25;5035855;28;45455;-67
2023/10/20 08:37:35;;;;;;;;;2.50;2.50;;;;;16.69;75.91;97495.84;5036048;28;45484;-67
2023/10/20 08:40:00;;;;;;;;;4.67;3.33;;;;;16.67;75.86;97475.78;5030729;28;46690;-67
2023/10/20 08:42:26;;;;;;;;;2.00;2.00;;;;;16.73;75.65;97480.63;5026150;28;45472;-69
2023/10/20 08:44:52;;;;;;;;;2.33;2.33;;;;;16.81;75.22;97490.66;5017720;28;45422;-66
2023/10/20 08:47:19;;;;;;;;;3.00;3.00;;;;;16.84;74.98;97493.88;5028119;28;45484;-65
2023/10/20 08:49:46;;;;;;;;;2.00;2.00;;;;;16.90;74.64;97490.78;5035215;28;45556;-67
2023/10/20 08:52:12;;;;;;;;;3.00;2.00;;;;;16.95;74.63;97496.56;5034645;28;46197;-67
2023/10/20 08:54:39;;;;;;;;;2.67;2.00;;;;;16.84;74.09;97467.47;5033684;28;45480;-68
2023/10/20 08:57:05;;;;;;;;;3.33;2.00;;;;;16.81;74.01;97465.06;5034595;28;45436;-67
2023/10/20 08:59:35;;;;;;;;;3.00;2.33;;;;;17.00;74.00;97487.47;5028176;28;45457;-68
2023/10/20 09:02:02;;;;;;;;;4.00;3.00;;;;;17.19;73.90;97498.31;5034349;28;45559;-66
2023/10/20 09:04:28;;;;;;;;;2.00;2.00;;;;;17.23;73.48;97497.13;5032824;28;45752;-68
2023/10/20 09:06:55;;;;;;;;;3.00;3.00;;;;;17.30;72.93;97489.56;5034212;28;45447;-67
2023/10/20 09:09:20;;;;;;;;;3.00;3.00;;;;;17.53;72.54;97508.94;5033536;28;45921;-67
2023/10/20 09:11:47;;;;;;;;;3.00;3.00;;;;;17.69;71.89;97490.06;5034332;28;45812;-67
2023/10/20 09:14:16;;;;;;;;;2.00;2.00;;;;;17.70;71.62;97497.00;5032944;28;45328;-67
2023/10/20 09:16:42;;;;;;;;;5.00;2.33;;;;;17.57;71.19;97478.63;5036035;28;45533;-66
2023/10/20 09:19:12;;;;;;;;;3.00;3.00;;;;;17.57;71.50;97491.84;5032876;28;45686;-65
2023/10/20 09:21:41;;;;;;;;;3.00;2.00;;;;;17.56;71.64;97506.06;5034261;28;45705;-68
2023/10/20 09:24:09;;;;;;;;;3.33;3.00;;;;;17.59;70.76;97519.03;5032598;28;46580;-68
2023/10/20 09:26:36;;;;;;;;;3.33;2.33;;;;;17.52;71.60;97513.38;5035282;28;45606;-67
2023/10/20 09:29:05;;;;;;;;;4.67;2.00;;;;;17.57;71.06;97513.88;5035469;28;45449;-68
2023/10/20 09:31:31;;;;;;;;;4.33;3.33;;;;;17.58;71.30;97515.56;5034413;28;45461;-67
2023/10/20 09:33:58;;;;;;;;;1.00;1.00;;;;;17.62;71.05;97515.31;5036274;28;45506;-67
2023/10/20 09:36:25;;;;;;;;;3.33;3.00;;;;;17.64;70.85;97522.16;5033888;28;45589;-67
2023/10/20 09:38:57;;;;;;;;;3.33;3.33;;;;;17.72;70.46;97529.50;5035468;28;46312;-66
2023/10/20 09:41:29;;;;;;;;;3.67;3.67;;;;;17.83;70.05;97521.59;5033536;28;45619;-66
2023/10/20 09:44:06;;;;;;;;;4.33;4.00;;;;;18.05;69.51;97506.66;5032616;28;45439;-67
2023/10/20 09:46:59;;;;;;;;;3.33;3.00;;;;;18.39;68.63;97531.28;5033339;28;45298;-68
2023/10/20 09:49:27;;;;;;;;;2.33;2.00;;;;;18.50;68.26;97539.19;5033099;28;45565;-67
2023/10/20 09:51:55;;;;;;;;;2.33;2.33;;;;;18.51;68.15;97538.25;5033581;28;45492;-68
2023/10/20 09:54:30;;;;;;;;;3.00;2.67;;;;;18.46;67.58;97542.22;5033119;28;45456;-67
2023/10/20 09:56:56;;;;;;;;;6.67;3.00;;;;;18.33;68.48;97545.03;5034380;28;47130;-68
2023/10/20 09:59:24;;;;;;;;;3.00;3.00;;;;;18.32;68.10;97546.84;5026268;28;45697;-66
2023/10/20 10:01:52;;;;;;;;;4.67;3.67;;;;;18.13;68.22;97531.56;5034561;28;45448;-67
2023/10/20 10:04:28;;;;;;;;;3.33;2.33;;;;;18.07;68.58;97529.41;5033188;28;45352;-66
2023/10/20 10:06:58;;;;;;;;;4.00;2.00;;;;;18.02;68.63;97534.22;5033273;28;45457;-66
2023/10/20 10:09:34;;;;;;;;;2.67;2.67;;;;;17.89;68.21;97531.72;5034178;28;46406;-67
2023/10/20 10:12:09;;;;;;;;;4.33;3.00;;;;;17.85;68.29;97545.31;5035346;28;45560;-67
2023/10/20 10:14:35;;;;;;;;;4.00;4.00;;;;;17.98;69.50;97554.78;5034306;28;45590;-67
2023/10/20 10:17:07;;;;;;;;;5.67;3.00;;;;;17.86;69.54;97536.41;5050654;28;45544;-67
2023/10/20 10:19:33;;;;;;;;;4.00;2.67;;;;;17.92;69.45;97550.00;5032220;28;45630;-68
2023/10/20 10:22:01;;;;;;;;;9.00;4.00;;;;;17.87;69.99;97551.31;5032254;28;45955;-66
2023/10/20 10:24:31;;;;;;;;;4.00;4.00;;;;;18.02;70.16;97571.31;5032909;28;45502;-68
2023/10/20 10:27:06;;;;;;;;;7.33;4.33;;;;;17.96;70.24;97574.41;5028202;28;46009;-66
2023/10/20 10:29:53;;;;;;;;;4.33;4.33;;;;;17.89;70.78;97576.72;5031914;28;45515;-68
2023/10/20 10:32:20;;;;;;;;;4.00;3.33;;;;;17.95;71.19;97578.03;5030106;28;46018;-66
2023/10/20 10:34:48;;;;;;;;;4.00;4.00;;;;;17.92;71.46;97570.34;5034577;28;45475;-65
2023/10/20 10:37:35;;;;;;;;;6.00;4.00;;;;;17.88;72.01;97569.72;5033498;28;45519;-65
2023/10/20 10:40:11;;;;;;;;;8.33;5.00;;;;;18.25;71.10;97569.47;5033112;28;46121;-65
2023/10/20 10:42:47;;;;;;;;;5.00;5.00;;;;;18.42;70.70;97568.13;5029846;28;45423;-68
2023/10/20 10:45:27;;;;;;;;;7.33;4.67;;;;;18.27;70.96;97551.66;5025668;28;45243;-65
2023/10/20 10:48:07;;;;;;;;;8.33;7.00;;;;;18.31;70.84;97560.19;5027295;28;45481;-68
2023/10/20 10:50:36;;;;;;;;;13.33;12.00;;;;;17.99;70.90;97518.59;5032964;28;47888;-66
2023/10/20 10:53:02;;;;;;;;;12.00;12.00;;;;;18.07;70.88;97529.41;5027713;28;45592;-67
2023/10/20 10:55:29;;;;;;;;;8.00;7.00;;;;;18.29;71.01;97564.78;5025906;28;45624;-67
2023/10/20 10:57:57;;;;;;;;;5.00;5.00;;;;;18.32;70.61;97562.72;5022550;28;45709;-67
2023/10/20 11:00:22;;;;;;;;;5.33;3.33;;;;;18.42;70.00;97570.78;5030760;28;46223;-68
2023/10/20 11:02:48;;;;;;;;;4.33;3.00;;;;;18.29;70.45;97548.88;5034206;28;45574;-68
2023/10/20 11:05:16;;;;;;;;;3.00;3.00;;;;;18.47;69.95;97558.00;5036706;28;45489;-66
2023/10/20 11:08:04;;;;;;;;;6.33;6.33;;;;;18.78;68.75;97566.97;5035746;28;45441;-67
2023/10/20 11:10:35;;;;;;;;;7.67;5.00;;;;;18.83;67.86;97522.34;5035659;28;46246;-67
2023/10/20 11:13:06;;;;;;;;;6.33;6.33;;;;;19.53;66.40;97556.34;5031412;28;45563;-68
2023/10/20 11:15:32;;;;;;;;;7.00;6.67;;;;;18.96;66.46;97479.75;5034086;28;47140;-68
2023/10/20 11:18:00;;;;;;;;;6.00;5.00;;;;;19.28;66.60;97567.22;5036758;28;45571;-67
2023/10/20 11:20:30;;;;;;;;;6.00;5.33;;;;;19.10;66.19;97538.75;5036072;28;45576;-68
2023/10/20 11:22:57;;;;;;;;;7.33;6.67;;;;;18.74;65.97;97527.53;5037495;28;45385;-68
2023/10/20 11:25:23;;;;;;;;;5.00;5.00;;;;;18.67;67.16;97560.81;5034829;28;45392;-67
2023/10/20 11:27:56;;;;;;;;;7.00;7.00;;;;;18.77;67.77;97567.09;5036746;28;45433;-70
2023/10/20 11:30:27;;;;;;;;;10.00;9.33;;;;;19.82;66.29;97530.81;5033083;28;46350;-70
2023/10/20 11:32:54;;;;;;;;;8.67;8.00;;;;;21.75;60.57;97538.25;5036492;28;45345;-69
2023/10/20 11:35:26;;;;;;;;;9.00;7.33;;;;;22.65;56.40;97542.84;5036215;28;45789;-69
2023/10/20 11:38:00;;;;;;;;;13.33;12.00;;;;;21.45;57.31;97516.19;5037872;28;45421;-70
2023/10/20 11:40:26;;;;;;;;;11.33;8.33;;;;;21.57;58.92;97543.50;5036862;28;45861;-70
2023/10/20 11:42:52;;;;;;;;;11.67;9.67;;;;;22.90;55.42;97527.09;5036076;28;45436;-69
2023/10/20 11:45:20;;;;;;;;;12.00;9.33;;;;;22.37;56.10;97512.72;5035473;28;45322;-68
2023/10/20 11:47:46;;;;;;;;;7.33;6.33;;;;;24.87;49.77;97496.06;5036252;28;45519;-69
2023/10/20 11:50:12;;;;;;;;;8.00;5.67;;;;;24.37;48.44;97464.84;5037235;28;45451;-68
2023/10/20 11:52:41;;;;;;;;;5.67;4.33;;;;;23.55;51.70;97500.06;5036717;28;45658;-70
2023/10/20 11:55:11;;;;;;;;;6.67;6.67;;;;;24.95;48.94;97463.94;5037555;28;45560;-67
2023/10/20 11:57:37;;;;;;;;;5.00;4.00;;;;;26.34;45.46;97525.28;5049245;28;45570;-70
2023/10/20 12:00:09;;;;;;;;;4.00;3.25;;;;;27.00;44.84;97516.84;5036067;28;45795;-68
2023/10/20 12:02:41;;;;;;;;;6.25;3.75;;;;;27.36;43.31;97510.84;5036454;28;45646;-68
2023/10/20 12:05:08;;;;;;;;;5.50;4.25;;;;;27.69;42.33;97522.97;5035628;28;45567;-68
2023/10/20 12:07:34;;;;;;;;;5.75;3.50;;;;;27.59;42.93;97497.38;5035306;28;45418;-69
2023/10/20 12:10:00;;;;;;;;;6.00;5.00;;;;;27.67;42.63;97516.13;5035691;28;46263;-66
2023/10/20 12:12:26;;;;;;;;;5.00;4.50;;;;;27.35;41.94;97528.84;5034659;28;45352;-67
2023/10/20 12:14:52;;;;;;;;;5.25;4.00;;;;;26.82;43.16;97514.47;5038573;28;45320;-70
2023/10/20 12:17:17;;;;;;;;;3.50;3.00;;;;;26.87;43.00;97517.44;5034212;28;45547;-68
2023/10/20 12:19:43;;;;;;;;;2.25;2.00;;;;;26.10;43.28;97518.19;5035241;28;46050;-68